Stations météo

réclame
Mon MeteoGroup
Vinaroz, Espagne (8239): Température de l'air & dewpoint: 13.12.2018 15:00:00 - 19.12.2018 15:00:00 (CET)Vinaroz, Espagne (8239): Vitesse du vent & gusts: 13.12.2018 15:00:00 - 19.12.2018 15:00:00 (CET)Vinaroz, Espagne (8239): Direction du vent: 13.12.2018 15:00:00 - 19.12.2018 15:00:00 (CET)
Date & Time tt [°C] td [°C] ff [km/h] ff [knt] fx [km/h] fx [knt] dd
19.12.2018 15:00:00 - - - - - - -
19.12.2018 14:00:00 19,2 3,4 3 2 13 7 W
19.12.2018 13:00:00 17,5 4,5 6 4 14 7 SW
19.12.2018 12:00:00 17,2 4,8 6 3 11 6 SW
19.12.2018 11:00:00 12,9 4,3 3 2 17 9 WNW
19.12.2018 10:00:00 9,4 5,1 10 5 18 10 WNW
19.12.2018 09:00:00 7,9 5,1 10 5 17 9 WNW
19.12.2018 08:00:00 7,7 4,8 4 2 12 6 WNW
19.12.2018 07:00:00 8,8 5,3 7 4 12 6 WNW
19.12.2018 06:00:00 9,0 5,1 4 2 14 8 WNW
19.12.2018 05:00:00 8,6 5,1 6 3 14 8 WNW
19.12.2018 04:00:00 8,7 5,1 8 4 11 6 WNW
19.12.2018 03:00:00 8,5 5,1 6 3 16 9 WNW
19.12.2018 02:00:00 7,9 4,5 8 5 17 9 WNW
19.12.2018 01:00:00 7,2 4,3 10 5 17 9 WNW
19.12.2018 00:00:00 6,3 3,6 8 5 17 9 WNW
18.12.2018 23:00:00 5,7 2,9 9 5 13 7 WNW
18.12.2018 22:00:00 5,7 3,0 5 3 12 6 WNW
18.12.2018 21:00:00 6,7 3,6 9 5 11 6 WNW
18.12.2018 20:00:00 7,3 3,6 5 3 9 5 WNW
18.12.2018 19:00:00 8,2 4,3 4 2 6 3 WNW
18.12.2018 18:00:00 9,5 4,6 5 3 8 5 WSW
18.12.2018 17:00:00 11,6 4,1 7 4 13 7 SW
18.12.2018 16:00:00 12,7 3,0 10 5 21 11 SW
18.12.2018 15:00:00 14,4 1,9 13 7 20 11 SW
18.12.2018 14:00:00 15,2 3,6 10 5 19 10 SW
18.12.2018 13:00:00 14,3 5,6 10 6 17 9 SW
18.12.2018 12:00:00 13,8 5,0 9 5 16 9 WSW
18.12.2018 11:00:00 13,3 2,5 5 3 10 5 W
18.12.2018 10:00:00 8,6 1,1 4 2 9 5 WNW
18.12.2018 09:00:00 4,8 1,1 6 4 12 6 WNW
18.12.2018 08:00:00 4,1 0,4 7 4 18 10 WNW
18.12.2018 07:00:00 3,9 0,9 11 6 16 9 WNW
18.12.2018 06:00:00 4,1 1,1 4 2 11 6 WNW
18.12.2018 05:00:00 4,4 1,7 6 4 10 5 WNW
18.12.2018 04:00:00 5,5 1,7 8 4 14 8 WNW
18.12.2018 03:00:00 4,9 0,9 6 3 14 8 WNW
18.12.2018 02:00:00 5,0 0,9 7 4 13 7 WNW
18.12.2018 01:00:00 5,2 0,0 8 4 15 8 WNW
18.12.2018 00:00:00 5,4 0,4 7 4 11 6 WNW
17.12.2018 23:00:00 5,4 0,6 8 4 15 8 WNW
17.12.2018 22:00:00 6,5 1,1 10 5 15 8 WNW
17.12.2018 21:00:00 7,0 0,9 8 4 14 7 WNW
17.12.2018 20:00:00 7,4 0,6 9 5 13 7 WNW
17.12.2018 19:00:00 8,6 0,9 9 5 13 7 WNW
17.12.2018 18:00:00 9,3 -0,7 5 3 9 5 WNW
17.12.2018 17:00:00 14,2 -1,0 0 0 8 4 N
17.12.2018 16:00:00 15,2 -1,0 6 3 10 5 WNW
17.12.2018 15:00:00 15,5 -0,3 0 0 16 8 WSW
17.12.2018 14:00:00 14,4 -1,0 5 3 31 17 WNW
17.12.2018 13:00:00 14,6 -1,2 15 8 36 19 WNW
17.12.2018 12:00:00 14,5 -1,7 23 12 41 22 WNW
17.12.2018 11:00:00 13,8 -1,7 17 9 31 17 WNW
17.12.2018 10:00:00 13,1 -1,2 8 4 18 10 WNW
17.12.2018 09:00:00 10,3 -2,0 5 3 34 19 WSW
17.12.2018 08:00:00 10,9 -2,5 23 12 42 23 WNW
17.12.2018 07:00:00 11,6 -1,4 9 5 23 12 WSW
17.12.2018 06:00:00 10,4 -1,7 10 5 18 10 WSW
17.12.2018 05:00:00 10,0 -1,2 6 3 27 15 SW
17.12.2018 04:00:00 11,6 -1,2 13 7 37 20 WNW
17.12.2018 03:00:00 11,6 -0,5 12 6 32 17 WNW
17.12.2018 02:00:00 11,9 -0,7 8 4 23 12 WNW
17.12.2018 01:00:00 11,6 -1,2 2 1 24 13 WSW
17.12.2018 00:00:00 12,3 -2,0 3 2 32 18 W
16.12.2018 23:00:00 14,1 -1,4 16 8 38 20 WNW
16.12.2018 22:00:00 14,5 -0,5 16 8 35 19 WNW
16.12.2018 21:00:00 14,3 1,5 12 7 42 23 WNW
16.12.2018 20:00:00 12,1 7,8 6 3 19 10 WNW
16.12.2018 19:00:00 11,0 7,8 3 1 14 8 SW
16.12.2018 18:00:00 11,9 8,4 4 2 10 5 WNW
16.12.2018 17:00:00 13,8 8,8 4 2 10 5 WNW
16.12.2018 16:00:00 15,3 7,8 4 2 8 5 SW
16.12.2018 15:00:00 15,1 7,4 4 2 9 5 W
16.12.2018 14:00:00 13,5 7,3 5 3 13 7 WNW
16.12.2018 13:00:00 13,4 6,2 5 3 15 8 WNW
16.12.2018 12:00:00 13,8 5,6 7 4 16 9 WNW
16.12.2018 11:00:00 12,8 6,8 8 5 13 7 WNW
16.12.2018 10:00:00 11,5 6,8 10 5 16 9 WNW
16.12.2018 09:00:00 9,8 6,7 9 5 14 7 WNW
16.12.2018 08:00:00 9,0 6,2 6 3 11 6 WNW
16.12.2018 07:00:00 8,2 5,3 9 5 13 7 WNW
16.12.2018 06:00:00 7,6 4,6 6 3 9 5 WNW
16.12.2018 05:00:00 8,7 5,8 6 3 9 5 WNW
16.12.2018 04:00:00 9,0 5,9 6 3 10 5 WNW
16.12.2018 03:00:00 9,3 6,1 5 3 10 5 WNW
16.12.2018 02:00:00 10,3 5,9 7 4 13 7 WNW
16.12.2018 01:00:00 10,6 5,3 9 5 15 8 WNW
16.12.2018 00:00:00 10,6 5,6 8 5 14 8 WNW
15.12.2018 23:00:00 10,1 5,5 9 5 16 8 WNW
15.12.2018 22:00:00 8,9 5,1 6 3 13 7 WNW
15.12.2018 21:00:00 9,4 5,6 8 4 14 7 WNW
15.12.2018 20:00:00 9,7 5,9 5 3 9 5 WNW
15.12.2018 19:00:00 10,5 6,7 5 3 8 4 WNW
15.12.2018 18:00:00 11,3 6,4 5 3 7 4 WNW
15.12.2018 17:00:00 14,3 6,4 1 1 7 4 WNW
15.12.2018 16:00:00 13,9 5,8 1 1 5 3 WSW
15.12.2018 15:00:00 14,7 5,0 3 1 12 7 WSW
15.12.2018 14:00:00 14,8 3,9 7 4 11 6 WSW
15.12.2018 13:00:00 14,9 2,1 5 3 10 5 WSW
15.12.2018 12:00:00 15,0 2,1 5 3 10 5 WSW
15.12.2018 11:00:00 14,7 2,9 3 2 8 5 WSW
15.12.2018 10:00:00 11,6 2,9 0 0 8 5 WSW
15.12.2018 09:00:00 8,0 1,1 6 3 12 6 WNW
15.12.2018 08:00:00 6,1 0,2 8 5 11 6 WNW
15.12.2018 07:00:00 6,7 -0,5 5 3 15 8 WNW
15.12.2018 06:00:00 7,9 -0,5 8 4 21 11 WNW
15.12.2018 05:00:00 10,8 -0,7 11 6 24 13 W
15.12.2018 04:00:00 11,2 -1,0 14 8 29 16 W
15.12.2018 03:00:00 10,1 -0,5 10 6 18 10 WNW
15.12.2018 02:00:00 7,8 0,6 8 4 12 6 WNW
15.12.2018 01:00:00 7,8 1,1 4 2 10 6 WSW
15.12.2018 00:00:00 7,9 1,1 2 1 8 5 WNW
14.12.2018 23:00:00 10,0 -0,5 5 3 16 8 WNW
14.12.2018 22:00:00 11,3 -0,5 7 4 23 12 WNW
14.12.2018 21:00:00 12,2 -0,3 13 7 33 18 WNW
14.12.2018 20:00:00 11,9 -0,3 11 6 21 12 WNW
14.12.2018 19:00:00 12,1 -0,5 9 5 35 19 WNW
14.12.2018 18:00:00 13,0 -0,7 14 8 37 20 WNW
14.12.2018 17:00:00 14,8 -0,3 21 12 50 27 WNW
14.12.2018 16:00:00 15,9 0,4 25 14 46 25 WNW
14.12.2018 15:00:00 16,7 1,1 24 13 50 27 WNW
14.12.2018 14:00:00 16,5 1,1 28 15 53 29 WNW
14.12.2018 13:00:00 16,8 1,7 22 12 40 21 WNW
14.12.2018 12:00:00 15,4 1,1 19 10 44 24 WNW
14.12.2018 11:00:00 14,3 0,4 19 11 37 20 WNW
14.12.2018 10:00:00 13,6 0,9 16 9 47 26 WNW
14.12.2018 09:00:00 13,0 0,6 26 14 44 24 WNW
14.12.2018 08:00:00 11,7 1,3 15 8 27 14 WNW
14.12.2018 07:00:00 12,3 1,3 16 8 30 16 WNW
14.12.2018 06:00:00 11,8 1,1 16 9 53 28 WNW
14.12.2018 05:00:00 12,2 1,5 20 11 41 22 WNW
14.12.2018 04:00:00 12,2 1,5 20 11 54 29 WNW
14.12.2018 03:00:00 12,0 1,7 17 9 44 24 WNW
14.12.2018 02:00:00 11,6 1,9 17 9 42 23 WNW
14.12.2018 01:00:00 11,7 2,1 14 8 41 22 WNW
14.12.2018 00:00:00 11,8 2,3 17 9 41 22 WNW
13.12.2018 23:00:00 11,0 3,8 14 7 45 24 WNW
13.12.2018 22:00:00 11,3 3,4 20 11 39 21 WNW
13.12.2018 21:00:00 9,9 5,5 13 7 26 14 WNW
13.12.2018 20:00:00 9,9 7,1 6 3 19 11 WNW
13.12.2018 19:00:00 10,5 7,6 9 5 14 8 WNW
13.12.2018 18:00:00 10,7 8,0 8 5 15 8 WNW
13.12.2018 17:00:00 10,9 8,0 3 2 9 5 WNW
13.12.2018 16:00:00 11,3 8,4 6 4 29 16 W
13.12.2018 15:00:00 11,2 8,3 8 5 13 7 WNW

tt = Température de l'air
td = dewpoint
ff = Vitesse du vent
fx = gusts
dd = Direction du vent

stations d'obs. à proximité